Time;durP1;ratioP1;P1;durP2;ratioP2;P2;SDS_P1;SDS_P2;PMS_P1;PMS_P2;Temp;Humidity;BMP_temperature;BMP_pressure;BME280_temperature;BME280_humidity;BME280_pressure;Samples;Min_cycle;Max_cycle;Signal;HPM_P1;HPM_P2
2023/08/29 00:00:11;;;;;;;2.42;1.40;;;;;;;;;;5054362;28;20136;-54
2023/08/29 00:02:41;;;;;;;1.98;1.45;;;;;;;;;;5054815;28;20055;-52
2023/08/29 00:05:08;;;;;;;3.23;1.73;;;;;;;;;;5054344;28;20106;-57
2023/08/29 00:07:35;;;;;;;2.38;1.30;;;;;;;;;;5054551;28;20049;-57
2023/08/29 00:10:02;;;;;;;2.03;1.35;;;;;;;;;;5054496;28;20087;-57
2023/08/29 00:12:31;;;;;;;1.67;1.05;;;;;;;;;;5053897;28;20102;-55
2023/08/29 00:14:58;;;;;;;2.63;1.70;;;;;;;;;;5054439;28;20044;-58
2023/08/29 00:17:26;;;;;;;3.05;1.80;;;;;;;;;;5054714;28;20284;-56
2023/08/29 00:19:53;;;;;;;4.05;1.50;;;;;;;;;;5054166;28;20044;-52
2023/08/29 00:22:20;;;;;;;2.92;1.92;;;;;;;;;;5053955;28;20049;-53
2023/08/29 00:24:47;;;;;;;2.47;1.60;;;;;;;;;;5054016;28;20049;-55
2023/08/29 00:27:13;;;;;;;2.70;1.65;;;;;;;;;;5053977;28;20044;-58
2023/08/29 00:29:42;;;;;;;2.97;1.90;;;;;;;;;;5053813;28;20056;-58
2023/08/29 00:32:09;;;;;;;3.00;1.70;;;;;;;;;;5054024;28;20504;-57
2023/08/29 00:34:35;;;;;;;3.38;2.10;;;;;;;;;;5053665;28;20136;-58
2023/08/29 00:37:02;;;;;;;3.15;1.90;;;;;;;;;;5053007;28;20052;-57
2023/08/29 00:39:28;;;;;;;2.92;1.80;;;;;;;;;;5053271;28;20100;-58
2023/08/29 00:41:55;;;;;;;3.20;2.00;;;;;;;;;;5053387;28;20128;-53
2023/08/29 00:44:22;;;;;;;3.20;1.90;;;;;;;;;;5053966;28;20279;-57
2023/08/29 00:46:51;;;;;;;2.75;1.70;;;;;;;;;;5053601;28;20076;-53
2023/08/29 00:49:22;;;;;;;2.47;1.77;;;;;;;;;;5053825;28;20563;-57
2023/08/29 00:51:49;;;;;;;2.70;1.85;;;;;;;;;;5053732;28;20473;-55
2023/08/29 00:54:18;;;;;;;2.53;1.65;;;;;;;;;;5053622;28;20126;-56
2023/08/29 00:56:46;;;;;;;3.50;1.80;;;;;;;;;;5053482;28;20071;-57
2023/08/29 00:59:13;;;;;;;2.63;1.80;;;;;;;;;;5053664;28;20556;-57
2023/08/29 01:01:40;;;;;;;2.42;1.67;;;;;;;;;;5053528;28;20045;-57
2023/08/29 01:04:09;;;;;;;3.22;2.17;;;;;;;;;;5053556;28;20528;-56
2023/08/29 01:06:37;;;;;;;3.25;2.13;;;;;;;;;;5053355;28;20060;-56
2023/08/29 01:09:06;;;;;;;3.30;1.98;;;;;;;;;;5052875;28;20080;-53
2023/08/29 01:11:38;;;;;;;3.00;1.92;;;;;;;;;;5052942;28;20045;-53
2023/08/29 01:14:12;;;;;;;3.50;2.20;;;;;;;;;;5052767;28;20053;-53
2023/08/29 01:16:43;;;;;;;3.67;2.05;;;;;;;;;;5052562;28;20048;-54
2023/08/29 01:19:15;;;;;;;3.33;2.00;;;;;;;;;;5052802;28;20136;-52
2023/08/29 01:21:48;;;;;;;3.35;2.00;;;;;;;;;;5052882;28;20547;-53
2023/08/29 01:24:21;;;;;;;3.05;2.00;;;;;;;;;;5052623;28;20044;-51
2023/08/29 01:26:50;;;;;;;4.10;2.45;;;;;;;;;;5052602;28;20521;-54
2023/08/29 01:29:17;;;;;;;3.20;2.10;;;;;;;;;;5052289;28;20124;-54
2023/08/29 01:31:44;;;;;;;3.45;2.50;;;;;;;;;;5052304;28;20119;-53
2023/08/29 01:34:12;;;;;;;2.88;1.88;;;;;;;;;;5052236;28;20091;-54
2023/08/29 01:36:39;;;;;;;3.05;2.08;;;;;;;;;;5052111;28;20057;-49
2023/08/29 01:39:06;;;;;;;2.97;1.83;;;;;;;;;;5052333;28;20041;-49
2023/08/29 01:41:33;;;;;;;3.28;2.10;;;;;;;;;;5052144;28;20051;-52
2023/08/29 01:44:03;;;;;;;2.60;1.70;;;;;;;;;;5051701;28;20053;-49
2023/08/29 01:46:30;;;;;;;3.40;2.10;;;;;;;;;;5051958;28;20056;-50
2023/08/29 01:48:57;;;;;;;5.10;2.33;;;;;;;;;;5052023;28;20049;-53
2023/08/29 01:51:25;;;;;;;3.28;1.90;;;;;;;;;;5052049;28;20063;-50
2023/08/29 01:53:51;;;;;;;2.85;1.90;;;;;;;;;;5052070;28;20049;-55
2023/08/29 01:56:19;;;;;;;3.13;2.00;;;;;;;;;;5051879;28;20530;-53
2023/08/29 01:58:47;;;;;;;2.90;1.70;;;;;;;;;;5041730;28;20045;-51
2023/08/29 02:01:15;;;;;;;3.15;2.03;;;;;;;;;;5051087;28;20045;-52
2023/08/29 02:03:42;;;;;;;2.97;2.10;;;;;;;;;;5051793;28;20128;-51
2023/08/29 02:06:08;;;;;;;2.85;1.85;;;;;;;;;;5051536;28;20045;-54
2023/08/29 02:08:36;;;;;;;2.67;1.60;;;;;;;;;;5051905;28;20044;-50
2023/08/29 02:11:02;;;;;;;2.90;1.90;;;;;;;;;;5051967;28;20418;-51
2023/08/29 02:13:29;;;;;;;2.60;1.83;;;;;;;;;;5051234;28;20049;-52
2023/08/29 02:15:55;;;;;;;3.38;2.00;;;;;;;;;;5051936;28;20041;-52
2023/08/29 02:18:25;;;;;;;2.53;1.67;;;;;;;;;;5051858;28;20409;-51
2023/08/29 02:20:51;;;;;;;3.30;1.65;;;;;;;;;;5050618;28;20090;-53
2023/08/29 02:23:18;;;;;;;3.10;1.80;;;;;;;;;;5051388;28;20041;-52
2023/08/29 02:25:44;;;;;;;2.83;1.83;;;;;;;;;;5048492;28;20410;-53
2023/08/29 02:28:11;;;;;;;3.28;1.85;;;;;;;;;;5051754;28;20529;-55
2023/08/29 02:30:38;;;;;;;3.13;1.75;;;;;;;;;;5051430;28;20049;-51
2023/08/29 02:33:04;;;;;;;2.47;1.60;;;;;;;;;;5051869;28;20053;-50
2023/08/29 02:35:32;;;;;;;3.00;1.77;;;;;;;;;;5051267;28;20136;-51
2023/08/29 02:37:59;;;;;;;2.67;1.60;;;;;;;;;;5051427;28;20405;-50
2023/08/29 02:40:26;;;;;;;2.47;1.60;;;;;;;;;;5051726;28;20084;-51
2023/08/29 02:42:52;;;;;;;2.25;1.58;;;;;;;;;;5051275;28;20140;-51
2023/08/29 02:45:19;;;;;;;2.88;1.80;;;;;;;;;;5051410;28;20140;-51
2023/08/29 02:47:45;;;;;;;2.85;1.77;;;;;;;;;;5051566;28;20103;-51
2023/08/29 02:50:12;;;;;;;3.03;1.80;;;;;;;;;;5051267;28;20045;-52
2023/08/29 02:52:40;;;;;;;3.63;1.95;;;;;;;;;;5051594;28;20573;-55
2023/08/29 02:55:07;;;;;;;3.13;2.03;;;;;;;;;;5051179;28;20088;-52
2023/08/29 02:57:34;;;;;;;3.45;2.00;;;;;;;;;;5051162;28;20044;-55
2023/08/29 03:00:01;;;;;;;3.95;1.95;;;;;;;;;;5051503;28;20501;-50
2023/08/29 03:02:27;;;;;;;2.83;1.65;;;;;;;;;;5054604;28;20047;-53
2023/08/29 03:04:55;;;;;;;2.45;1.52;;;;;;;;;;5055152;28;20119;-50
2023/08/29 03:07:22;;;;;;;2.47;1.45;;;;;;;;;;5055603;28;20144;-54
2023/08/29 03:09:49;;;;;;;3.22;1.88;;;;;;;;;;5055390;28;20060;-58
2023/08/29 03:12:16;;;;;;;2.53;1.65;;;;;;;;;;5054632;28;20049;-51
2023/08/29 03:14:43;;;;;;;3.00;1.73;;;;;;;;;;5055427;28;20132;-48
2023/08/29 03:17:09;;;;;;;2.47;1.70;;;;;;;;;;5055243;28;20136;-52
2023/08/29 03:19:36;;;;;;;3.25;1.90;;;;;;;;;;5054954;28;20156;-51
2023/08/29 03:22:03;;;;;;;3.10;1.95;;;;;;;;;;5054864;28;20128;-52
2023/08/29 03:24:30;;;;;;;3.30;2.22;;;;;;;;;;5054962;28;20060;-52
2023/08/29 03:26:58;;;;;;;3.25;1.85;;;;;;;;;;5055126;28;20049;-51
2023/08/29 03:29:24;;;;;;;3.53;2.28;;;;;;;;;;5054902;28;20060;-54
2023/08/29 03:31:51;;;;;;;3.28;2.03;;;;;;;;;;5054947;28;20140;-54
2023/08/29 03:34:17;;;;;;;2.83;1.83;;;;;;;;;;5055082;28;20127;-53
2023/08/29 03:36:44;;;;;;;4.20;2.25;;;;;;;;;;5054796;28;20486;-52
2023/08/29 03:39:11;;;;;;;3.35;2.20;;;;;;;;;;5055167;28;20049;-52
2023/08/29 03:41:38;;;;;;;3.50;2.30;;;;;;;;;;5054817;28;20048;-54
2023/08/29 03:44:06;;;;;;;3.53;2.00;;;;;;;;;;5054460;28;20045;-54
2023/08/29 03:46:33;;;;;;;3.42;2.15;;;;;;;;;;5054429;28;20498;-55
2023/08/29 03:48:59;;;;;;;3.72;2.20;;;;;;;;;;5054484;28;20140;-49
2023/08/29 03:51:26;;;;;;;3.35;2.05;;;;;;;;;;5054322;28;20059;-54
2023/08/29 03:53:52;;;;;;;3.05;1.77;;;;;;;;;;5054272;28;20234;-50
2023/08/29 03:56:19;;;;;;;3.33;2.05;;;;;;;;;;5054400;28;20053;-53
2023/08/29 03:58:46;;;;;;;3.53;2.08;;;;;;;;;;5054343;28;20051;-55
2023/08/29 04:01:14;;;;;;;3.35;2.20;;;;;;;;;;5054283;28;20127;-54
2023/08/29 04:03:41;;;;;;;3.55;2.30;;;;;;;;;;5054167;28;20049;-50
2023/08/29 04:06:07;;;;;;;3.30;2.10;;;;;;;;;;5054164;28;20144;-55
2023/08/29 04:08:34;;;;;;;3.75;2.10;;;;;;;;;;5054061;28;20074;-54
2023/08/29 04:11:04;;;;;;;4.07;2.17;;;;;;;;;;5054031;28;20136;-50
2023/08/29 04:13:30;;;;;;;3.47;2.07;;;;;;;;;;5054038;28;20048;-50
2023/08/29 04:16:02;;;;;;;3.90;2.22;;;;;;;;;;5053809;28;20051;-48
2023/08/29 04:18:30;;;;;;;3.58;2.20;;;;;;;;;;5053877;28;20044;-50
2023/08/29 04:20:58;;;;;;;3.15;1.80;;;;;;;;;;5053396;28;20438;-50
2023/08/29 04:23:25;;;;;;;2.67;1.70;;;;;;;;;;5053550;28;20049;-54
2023/08/29 04:25:58;;;;;;;3.45;2.00;;;;;;;;;;5048279;28;20429;-51
2023/08/29 04:28:24;;;;;;;4.13;2.10;;;;;;;;;;5053330;28;20486;-51
2023/08/29 04:30:51;;;;;;;3.22;1.92;;;;;;;;;;5053768;28;20045;-53
2023/08/29 04:33:18;;;;;;;3.25;1.85;;;;;;;;;;5053290;28;20136;-52
2023/08/29 04:35:46;;;;;;;3.42;1.95;;;;;;;;;;5053785;28;20154;-50
2023/08/29 04:38:13;;;;;;;3.25;1.80;;;;;;;;;;5053295;28;20045;-53
2023/08/29 04:40:39;;;;;;;3.40;1.92;;;;;;;;;;5053477;28;20486;-49
2023/08/29 04:43:06;;;;;;;3.33;2.00;;;;;;;;;;5054015;28;20055;-56
2023/08/29 04:45:33;;;;;;;3.08;1.63;;;;;;;;;;5053488;28;20426;-55
2023/08/29 04:47:59;;;;;;;2.60;1.60;;;;;;;;;;5053126;28;20117;-56
2023/08/29 04:50:26;;;;;;;2.95;1.75;;;;;;;;;;5053573;28;20068;-55
2023/08/29 04:52:55;;;;;;;2.72;1.55;;;;;;;;;;5053179;28;20052;-52
2023/08/29 04:55:21;;;;;;;2.55;1.65;;;;;;;;;;5053344;28;20045;-53
2023/08/29 04:57:48;;;;;;;2.45;1.48;;;;;;;;;;5053328;28;20041;-52
2023/08/29 05:00:15;;;;;;;2.60;1.50;;;;;;;;;;5053249;28;20532;-48
2023/08/29 05:02:42;;;;;;;2.42;1.27;;;;;;;;;;5052696;28;20490;-52
2023/08/29 05:05:10;;;;;;;2.65;1.55;;;;;;;;;;5053109;28;20128;-51
2023/08/29 05:07:36;;;;;;;2.65;1.40;;;;;;;;;;5047056;28;20049;-55
2023/08/29 05:10:05;;;;;;;2.85;1.50;;;;;;;;;;5050851;28;20490;-52
2023/08/29 05:12:32;;;;;;;2.53;1.55;;;;;;;;;;5052028;28;20045;-53
2023/08/29 05:14:59;;;;;;;2.92;1.85;;;;;;;;;;5052917;28;20504;-51
2023/08/29 05:17:25;;;;;;;2.72;1.58;;;;;;;;;;5052981;28;20140;-52
2023/08/29 05:19:55;;;;;;;2.63;1.45;;;;;;;;;;5094442;22;20045;-83
2023/08/29 05:22:25;;;;;;;2.63;1.55;;;;;;;;;;5061919;28;20420;-83
2023/08/29 05:24:51;;;;;;;1.90;1.47;;;;;;;;;;5060986;28;20052;-84
2023/08/29 05:27:19;;;;;;;2.83;1.50;;;;;;;;;;5053253;28;20045;-84
2023/08/29 05:29:46;;;;;;;2.63;1.58;;;;;;;;;;5041662;28;20045;-84
2023/08/29 05:32:12;;;;;;;2.22;1.42;;;;;;;;;;5045837;28;20049;-83
2023/08/29 05:34:42;;;;;;;3.78;1.80;;;;;;;;;;5054870;28;20052;-84
2023/08/29 05:37:09;;;;;;;3.72;1.73;;;;;;;;;;5053770;28;20421;-84
2023/08/29 05:39:35;;;;;;;2.45;1.40;;;;;;;;;;5050897;28;20095;-85
2023/08/29 05:42:02;;;;;;;3.05;1.88;;;;;;;;;;5034600;28;20045;-84
2023/08/29 05:44:30;;;;;;;3.50;2.30;;;;;;;;;;5034213;28;20084;-83
2023/08/29 05:46:57;;;;;;;3.25;1.80;;;;;;;;;;5035182;28;20076;-84
2023/08/29 05:49:24;;;;;;;4.75;2.03;;;;;;;;;;5033601;28;20047;-84
2023/08/29 05:51:53;;;;;;;3.08;1.70;;;;;;;;;;5034007;28;20069;-83
2023/08/29 05:54:22;;;;;;;2.55;1.73;;;;;;;;;;5044591;28;20045;-83
2023/08/29 05:56:52;;;;;;;2.63;1.50;;;;;;;;;;5047569;28;20094;-83
2023/08/29 05:59:20;;;;;;;2.70;1.48;;;;;;;;;;5053697;28;20041;-83
2023/08/29 06:01:50;;;;;;;3.20;1.73;;;;;;;;;;5052340;28;20506;-83
2023/08/29 06:04:22;;;;;;;2.75;1.60;;;;;;;;;;5052697;28;20055;-83
2023/08/29 06:06:51;;;;;;;3.38;1.52;;;;;;;;;;5045129;28;20094;-84
2023/08/29 06:09:18;;;;;;;2.53;1.52;;;;;;;;;;5052510;28;20045;-83
2023/08/29 06:11:47;;;;;;;2.40;1.45;;;;;;;;;;5046335;28;20049;-83
2023/08/29 06:14:14;;;;;;;2.53;1.20;;;;;;;;;;5053329;28;20059;-83
2023/08/29 06:16:41;;;;;;;2.75;1.40;;;;;;;;;;5053932;28;20136;-84
2023/08/29 06:19:08;;;;;;;1.90;1.30;;;;;;;;;;5037009;28;20050;-84
2023/08/29 06:21:35;;;;;;;2.45;1.35;;;;;;;;;;5048210;28;20051;-84
2023/08/29 06:24:02;;;;;;;2.65;1.55;;;;;;;;;;5046844;28;20073;-84
2023/08/29 06:26:28;;;;;;;2.67;1.63;;;;;;;;;;5047979;28;20045;-84
2023/08/29 06:28:55;;;;;;;2.70;1.50;;;;;;;;;;5044419;28;20067;-84
2023/08/29 06:31:21;;;;;;;2.67;1.55;;;;;;;;;;5043776;28;20068;-84
2023/08/29 06:33:48;;;;;;;3.22;1.65;;;;;;;;;;5046414;28;20041;-84
2023/08/29 06:36:16;;;;;;;2.45;1.60;;;;;;;;;;5051784;28;20047;-84
2023/08/29 06:38:43;;;;;;;3.22;1.73;;;;;;;;;;5049406;28;20092;-84
2023/08/29 06:41:10;;;;;;;3.38;1.85;;;;;;;;;;5076200;28;20075;-84
2023/08/29 06:43:36;;;;;;;2.97;1.65;;;;;;;;;;5076137;28;20029;-85
2023/08/29 06:46:03;;;;;;;3.70;1.60;;;;;;;;;;5076146;28;20049;-84
2023/08/29 06:48:28;;;;;;;2.97;1.70;;;;;;;;;;5076175;28;20055;-84
2023/08/29 06:50:58;;;;;;;3.47;2.05;;;;;;;;;;5073564;28;20102;-81
2023/08/29 06:53:26;;;;;;;3.78;2.47;;;;;;;;;;5071135;28;20045;-83
2023/08/29 06:55:53;;;;;;;3.40;2.15;;;;;;;;;;5046098;28;20583;-84
2023/08/29 06:58:19;;;;;;;3.75;2.10;;;;;;;;;;5050945;28;20045;-84
2023/08/29 07:00:46;;;;;;;3.60;2.10;;;;;;;;;;5048669;28;20041;-83
2023/08/29 07:03:13;;;;;;;2.88;1.98;;;;;;;;;;5049578;28;20052;-83
2023/08/29 07:05:39;;;;;;;3.40;2.10;;;;;;;;;;5053154;28;20048;-83
2023/08/29 07:08:06;;;;;;;3.35;2.13;;;;;;;;;;5045843;28;20064;-83
2023/08/29 07:10:34;;;;;;;3.22;1.92;;;;;;;;;;5053514;28;20404;-83
2023/08/29 07:13:01;;;;;;;3.20;1.60;;;;;;;;;;5044318;28;20056;-83
2023/08/29 07:15:28;;;;;;;2.83;1.60;;;;;;;;;;5044501;28;20055;-84
2023/08/29 07:17:54;;;;;;;3.40;2.08;;;;;;;;;;5044559;28;20053;-84
2023/08/29 07:20:21;;;;;;;3.97;1.98;;;;;;;;;;5044807;28;20049;-83
2023/08/29 07:22:47;;;;;;;3.35;2.20;;;;;;;;;;5047506;28;20041;-83
2023/08/29 07:25:15;;;;;;;3.15;2.20;;;;;;;;;;5040394;28;20051;-83
2023/08/29 07:27:43;;;;;;;3.42;2.22;;;;;;;;;;5045966;28;20045;-84
2023/08/29 07:30:14;;;;;;;3.67;2.47;;;;;;;;;;5040400;28;20042;-80
2023/08/29 07:32:41;;;;;;;3.47;2.28;;;;;;;;;;5039200;28;20332;-85
2023/08/29 07:35:09;;;;;;;3.47;2.17;;;;;;;;;;5039906;28;20046;-85
2023/08/29 07:37:38;;;;;;;3.40;1.98;;;;;;;;;;5043277;28;20057;-85
2023/08/29 07:40:08;;;;;;;3.97;2.03;;;;;;;;;;5046962;28;20053;-85
2023/08/29 07:42:35;;;;;;;2.78;2.00;;;;;;;;;;5042183;28;20558;-82
2023/08/29 07:45:03;;;;;;;3.30;2.20;;;;;;;;;;5042175;28;20050;-83
2023/08/29 07:47:51;;;;;;;3.42;1.98;;;;;;;;;;5048384;28;20048;-87
2023/08/29 07:50:18;;;;;;;2.60;1.70;;;;;;;;;;5047153;28;20053;-83
2023/08/29 07:52:44;;;;;;;3.00;1.58;;;;;;;;;;5056206;28;20065;-82
2023/08/29 07:55:11;;;;;;;3.13;1.98;;;;;;;;;;5050117;28;20050;-82
2023/08/29 07:57:37;;;;;;;3.40;1.55;;;;;;;;;;5050379;28;20048;-83
2023/08/29 08:00:09;;;;;;;2.63;1.60;;;;;;;;;;5046951;28;20480;-82
2023/08/29 08:02:38;;;;;;;2.60;1.50;;;;;;;;;;5044025;28;20046;-82
2023/08/29 08:05:06;;;;;;;2.08;1.40;;;;;;;;;;5049957;28;20053;-82
2023/08/29 08:07:33;;;;;;;2.78;1.60;;;;;;;;;;5041919;28;20049;-82
2023/08/29 08:09:59;;;;;;;2.35;1.48;;;;;;;;;;5048686;28;20046;-82
2023/08/29 08:12:26;;;;;;;2.53;1.52;;;;;;;;;;5050313;28;20046;-83
2023/08/29 08:14:53;;;;;;;2.10;1.30;;;;;;;;;;5045492;28;20045;-82
2023/08/29 08:17:21;;;;;;;2.30;1.30;;;;;;;;;;5047408;28;20049;-83
2023/08/29 08:19:48;;;;;;;2.25;1.15;;;;;;;;;;5047061;28;20101;-82
2023/08/29 08:22:14;;;;;;;2.13;1.20;;;;;;;;;;5045677;28;20046;-83
2023/08/29 08:24:41;;;;;;;1.90;1.05;;;;;;;;;;5052414;28;20045;-82
2023/08/29 08:27:08;;;;;;;1.70;1.08;;;;;;;;;;5046268;28;20233;-85
2023/08/29 08:29:37;;;;;;;1.70;1.20;;;;;;;;;;5053124;28;20096;-80
2023/08/29 08:32:04;;;;;;;2.67;1.40;;;;;;;;;;5049408;28;20056;-83
2023/08/29 08:34:32;;;;;;;1.88;1.00;;;;;;;;;;5046038;28;20057;-83
2023/08/29 08:36:58;;;;;;;1.13;0.80;;;;;;;;;;5047795;28;20045;-82
2023/08/29 08:39:25;;;;;;;1.63;1.00;;;;;;;;;;5056390;28;20052;-81
2023/08/29 08:41:52;;;;;;;2.53;1.42;;;;;;;;;;5047941;28;20055;-83
2023/08/29 08:44:21;;;;;;;3.67;0.98;;;;;;;;;;5053205;28;20037;-83
2023/08/29 08:46:52;;;;;;;2.88;1.10;;;;;;;;;;5059278;28;20060;-83
2023/08/29 08:55:31;;;;;;;1.95;1.00;;;;;;;;;;4984487;28;20096;-83
2023/08/29 08:58:18;;;;;;;1.65;1.30;;;;;;;;;;5034637;28;20046;-83
2023/08/29 09:11:03;;;;;;;1.50;0.95;;;;;;;;;;5049893;28;20049;-84
2023/08/29 09:14:23;;;;;;;2.38;1.20;;;;;;;;;;5032053;28;20045;-83
2023/08/29 09:20:10;;;;;;;0.73;0.50;;;;;;;;;;5042647;22;20387;-53
2023/08/29 09:22:37;;;;;;;1.52;0.80;;;;;;;;;;5079946;28;20056;-54
2023/08/29 09:25:05;;;;;;;0.95;0.60;;;;;;;;;;5079524;28;20268;-50
2023/08/29 09:27:40;;;;;;;1.27;0.60;;;;;;;;;;5071710;28;20508;-54
2023/08/29 09:30:13;;;;;;;0.73;0.50;;;;;;;;;;5069542;28;20056;-56
2023/08/29 09:32:42;;;;;;;1.65;0.47;;;;;;;;;;5077737;28;20441;-51
2023/08/29 09:35:09;;;;;;;2.03;0.70;;;;;;;;;;5083067;28;20057;-56
2023/08/29 09:37:41;;;;;;;1.08;0.65;;;;;;;;;;5071252;28;20078;-56
2023/08/29 09:40:09;;;;;;;1.38;0.60;;;;;;;;;;5082090;28;20040;-51
2023/08/29 09:42:36;;;;;;;0.47;0.35;;;;;;;;;;5074205;28;20067;-54
2023/08/29 09:45:07;;;;;;;1.23;0.60;;;;;;;;;;5086114;28;20048;-56
2023/08/29 09:47:35;;;;;;;1.40;0.57;;;;;;;;;;5079806;28;20088;-53
2023/08/29 09:50:03;;;;;;;0.90;0.40;;;;;;;;;;5082631;28;20048;-54
2023/08/29 09:52:30;;;;;;;0.75;0.40;;;;;;;;;;5073796;28;20128;-56
2023/08/29 09:54:57;;;;;;;1.73;0.50;;;;;;;;;;5074126;28;20143;-54
2023/08/29 09:57:31;;;;;;;1.88;1.02;;;;;;;;;;5061474;28;20051;-55
2023/08/29 09:59:58;;;;;;;1.63;0.90;;;;;;;;;;5084979;28;20063;-51
2023/08/29 10:02:29;;;;;;;1.30;0.95;;;;;;;;;;5083538;28;20071;-56
2023/08/29 10:05:06;;;;;;;2.13;0.98;;;;;;;;;;5084266;28;20052;-55
2023/08/29 10:07:39;;;;;;;0.68;0.60;;;;;;;;;;5085338;28;20500;-52
2023/08/29 10:10:08;;;;;;;0.77;0.68;;;;;;;;;;5069839;28;20044;-49
2023/08/29 10:12:36;;;;;;;1.45;0.80;;;;;;;;;;5073942;28;20044;-51
2023/08/29 10:15:04;;;;;;;1.02;0.60;;;;;;;;;;5075832;28;20421;-53
2023/08/29 10:17:32;;;;;;;1.00;0.60;;;;;;;;;;5072545;28;20079;-53
2023/08/29 10:20:04;;;;;;;2.30;0.70;;;;;;;;;;5081297;28;20152;-56
2023/08/29 10:22:31;;;;;;;1.42;0.73;;;;;;;;;;5079803;28;20044;-56
2023/08/29 10:25:00;;;;;;;0.60;0.60;;;;;;;;;;5072940;28;20044;-50
2023/08/29 10:27:27;;;;;;;1.08;0.77;;;;;;;;;;5081452;28;20079;-52
2023/08/29 10:29:53;;;;;;;0.90;0.75;;;;;;;;;;5073839;28;20050;-53
2023/08/29 10:32:21;;;;;;;1.15;0.80;;;;;;;;;;5075650;28;20131;-55
2023/08/29 10:34:49;;;;;;;2.47;1.30;;;;;;;;;;5066618;28;20057;-53
2023/08/29 10:37:19;;;;;;;1.20;0.70;;;;;;;;;;5079088;28;20058;-54
2023/08/29 10:39:46;;;;;;;1.45;0.88;;;;;;;;;;5072949;28;20159;-54
2023/08/29 10:42:14;;;;;;;1.10;0.73;;;;;;;;;;5069275;28;20052;-51
2023/08/29 10:44:45;;;;;;;0.95;0.80;;;;;;;;;;5081088;28;20058;-53
2023/08/29 10:47:16;;;;;;;;;;;;;;;;;;5073918;28;20049;-54
2023/08/29 10:49:43;;;;;;;0.80;0.63;;;;;;;;;;5076220;28;20006;-54
2023/08/29 10:52:11;;;;;;;1.13;0.93;;;;;;;;;;5075302;28;20052;-50
2023/08/29 10:54:39;;;;;;;2.30;0.70;;;;;;;;;;5082147;28;20044;-49
2023/08/29 10:57:27;;;;;;;1.02;0.80;;;;;;;;;;5076181;28;20045;-51
2023/08/29 10:59:54;;;;;;;1.10;0.80;;;;;;;;;;5072294;28;20098;-54
2023/08/29 11:02:29;;;;;;;1.00;0.80;;;;;;;;;;5075159;28;20048;-55
2023/08/29 11:05:13;;;;;;;1.20;0.80;;;;;;;;;;5079101;28;20078;-56
2023/08/29 11:07:40;;;;;;;1.40;0.80;;;;;;;;;;5070706;28;20485;-50
2023/08/29 11:10:22;;;;;;;1.30;0.80;;;;;;;;;;5077633;28;20097;-52
2023/08/29 11:13:09;;;;;;;1.10;0.90;;;;;;;;;;5074409;28;20323;-52
2023/08/29 11:16:05;;;;;;;1.20;0.90;;;;;;;;;;5069780;28;20044;-55
2023/08/29 11:18:33;;;;;;;1.13;0.77;;;;;;;;;;5073159;28;20048;-55
2023/08/29 11:21:07;;;;;;;2.67;0.90;;;;;;;;;;5071514;28;20106;-54
2023/08/29 11:23:37;;;;;;;1.33;0.85;;;;;;;;;;5073231;28;20358;-56
2023/08/29 11:26:05;;;;;;;1.77;1.02;;;;;;;;;;5076898;28;20505;-56
2023/08/29 11:28:33;;;;;;;1.23;1.10;;;;;;;;;;5073863;28;20056;-54
2023/08/29 11:31:00;;;;;;;0.82;0.75;;;;;;;;;;5077672;28;20651;-55
2023/08/29 11:33:32;;;;;;;1.55;0.90;;;;;;;;;;5068206;28;20544;-55
2023/08/29 11:36:00;;;;;;;1.00;0.80;;;;;;;;;;5076142;28;20049;-55
2023/08/29 11:38:29;;;;;;;1.40;0.90;;;;;;;;;;5075185;28;20595;-55
2023/08/29 11:40:56;;;;;;;1.10;0.70;;;;;;;;;;5077353;28;20048;-52
2023/08/29 11:43:24;;;;;;;1.02;0.90;;;;;;;;;;5081742;28;20516;-53
2023/08/29 11:45:53;;;;;;;0.80;0.60;;;;;;;;;;5066682;28;20049;-51
2023/08/29 11:48:23;;;;;;;2.53;0.90;;;;;;;;;;5059487;28;20045;-53
2023/08/29 11:50:52;;;;;;;1.35;0.80;;;;;;;;;;5070821;28;20083;-54
2023/08/29 11:53:24;;;;;;;1.05;0.85;;;;;;;;;;5084511;28;20040;-51
2023/08/29 11:55:51;;;;;;;1.20;0.80;;;;;;;;;;5078252;28;20051;-56
2023/08/29 11:58:18;;;;;;;2.47;1.30;;;;;;;;;;5084941;28;20040;-51
2023/08/29 12:00:49;;;;;;;1.50;1.00;;;;;;;;;;5072220;28;20051;-49
2023/08/29 12:03:20;;;;;;;1.50;1.10;;;;;;;;;;5078396;28;20067;-54
2023/08/29 12:05:47;;;;;;;1.98;0.98;;;;;;;;;;5080223;28;20051;-49
2023/08/29 12:08:13;;;;;;;1.52;0.95;;;;;;;;;;5075676;28;20089;-55
2023/08/29 12:10:50;;;;;;;2.05;1.27;;;;;;;;;;5071086;28;20379;-54
2023/08/29 12:13:17;;;;;;;1.38;0.93;;;;;;;;;;5074097;28;20510;-51
2023/08/29 12:15:43;;;;;;;1.25;0.88;;;;;;;;;;5085423;28;20049;-55
2023/08/29 12:18:22;;;;;;;1.55;1.08;;;;;;;;;;5078640;28;20512;-51
2023/08/29 12:20:49;;;;;;;1.75;0.70;;;;;;;;;;5075708;28;20548;-52
2023/08/29 12:23:24;;;;;;;1.33;0.75;;;;;;;;;;5077110;28;20071;-56
2023/08/29 12:25:51;;;;;;;1.45;0.80;;;;;;;;;;5069659;28;20044;-54
2023/08/29 12:28:17;;;;;;;0.73;0.70;;;;;;;;;;5074803;28;20055;-61
2023/08/29 12:30:44;;;;;;;1.38;0.90;;;;;;;;;;5083093;28;20116;-56
2023/08/29 12:33:11;;;;;;;1.50;1.00;;;;;;;;;;5090244;28;20050;-55
2023/08/29 12:35:39;;;;;;;2.58;1.33;;;;;;;;;;5083744;28;20063;-54
2023/08/29 12:38:06;;;;;;;1.70;1.08;;;;;;;;;;5090055;28;20052;-55
2023/08/29 12:40:32;;;;;;;1.58;0.90;;;;;;;;;;5066203;28;20501;-54
2023/08/29 12:42:59;;;;;;;2.28;1.13;;;;;;;;;;5080172;28;20040;-56
2023/08/29 12:45:26;;;;;;;1.73;0.90;;;;;;;;;;5072706;28;20036;-56
2023/08/29 12:47:52;;;;;;;1.13;0.80;;;;;;;;;;5071344;28;20130;-59
2023/08/29 12:50:19;;;;;;;1.02;0.90;;;;;;;;;;5070670;28;20050;-55
2023/08/29 12:52:47;;;;;;;1.85;1.15;;;;;;;;;;5080019;28;20041;-54
2023/08/29 12:55:14;;;;;;;1.50;0.80;;;;;;;;;;5078630;28;20036;-56
2023/08/29 12:57:41;;;;;;;0.77;0.70;;;;;;;;;;5067907;28;20140;-55
2023/08/29 13:00:09;;;;;;;1.27;0.70;;;;;;;;;;5083779;28;20517;-56
2023/08/29 13:02:36;;;;;;;1.98;0.90;;;;;;;;;;5070780;28;20041;-53
2023/08/29 13:05:02;;;;;;;1.95;0.80;;;;;;;;;;5079145;28;20472;-56
2023/08/29 13:07:29;;;;;;;1.20;0.85;;;;;;;;;;5086090;28;20412;-55
2023/08/29 13:09:57;;;;;;;1.60;0.82;;;;;;;;;;5081233;28;20148;-56
2023/08/29 13:12:23;;;;;;;2.20;0.98;;;;;;;;;;5082805;28;20408;-54
2023/08/29 13:14:50;;;;;;;3.13;1.80;;;;;;;;;;5075826;28;20055;-56
2023/08/29 13:17:17;;;;;;;2.08;1.20;;;;;;;;;;5080968;28;20040;-56
2023/08/29 13:19:43;;;;;;;2.47;1.08;;;;;;;;;;5076863;28;20036;-51
2023/08/29 13:22:10;;;;;;;2.55;1.38;;;;;;;;;;5089363;28;20040;-50
2023/08/29 13:24:37;;;;;;;2.47;1.50;;;;;;;;;;5073584;28;20045;-56
2023/08/29 13:27:05;;;;;;;2.38;1.40;;;;;;;;;;5069276;28;20410;-55
2023/08/29 13:29:32;;;;;;;2.00;1.30;;;;;;;;;;5079768;28;20128;-55
2023/08/29 13:31:59;;;;;;;1.38;0.90;;;;;;;;;;5073904;28;20760;-55
2023/08/29 13:34:25;;;;;;;2.03;1.13;;;;;;;;;;5075823;28;20045;-55
2023/08/29 13:36:52;;;;;;;1.38;0.90;;;;;;;;;;5073501;28;20412;-55
2023/08/29 13:39:18;;;;;;;1.95;1.00;;;;;;;;;;5083533;28;20054;-55
2023/08/29 13:41:45;;;;;;;1.00;0.90;;;;;;;;;;5089174;28;20052;-50
2023/08/29 13:44:13;;;;;;;2.17;1.20;;;;;;;;;;5075393;28;20410;-54
2023/08/29 13:46:41;;;;;;;1.73;1.20;;;;;;;;;;5075314;28;20064;-56
2023/08/29 13:49:08;;;;;;;2.45;1.27;;;;;;;;;;5081637;28;20044;-53
2023/08/29 13:51:34;;;;;;;1.83;1.08;;;;;;;;;;5080035;28;20486;-56
2023/08/29 13:54:01;;;;;;;2.97;1.20;;;;;;;;;;5061540;28;20047;-55
2023/08/29 13:56:28;;;;;;;1.60;1.08;;;;;;;;;;5068852;28;20060;-55
2023/08/29 13:58:56;;;;;;;1.60;1.10;;;;;;;;;;5080880;28;20044;-56
2023/08/29 14:01:24;;;;;;;2.13;1.20;;;;;;;;;;5076865;28;20081;-54
2023/08/29 14:03:51;;;;;;;1.85;1.30;;;;;;;;;;5076406;28;20040;-54
2023/08/29 14:06:17;;;;;;;1.90;1.50;;;;;;;;;;5070636;28;20051;-57
2023/08/29 14:08:44;;;;;;;2.03;1.33;;;;;;;;;;5065569;28;20054;-54
2023/08/29 14:11:10;;;;;;;2.22;1.50;;;;;;;;;;5070373;28;20040;-57
2023/08/29 14:13:37;;;;;;;2.40;1.40;;;;;;;;;;5070929;28;20044;-55
2023/08/29 14:16:04;;;;;;;2.20;1.40;;;;;;;;;;5084120;28;20055;-54
2023/08/29 14:18:33;;;;;;;2.58;1.63;;;;;;;;;;5060706;28;20041;-57
2023/08/29 14:21:00;;;;;;;1.20;1.05;;;;;;;;;;5079168;28;20052;-56
2023/08/29 14:23:27;;;;;;;1.52;1.00;;;;;;;;;;5080551;28;20050;-55
2023/08/29 14:25:54;;;;;;;1.63;1.00;;;;;;;;;;5080696;28;20493;-57
2023/08/29 14:28:21;;;;;;;2.10;1.00;;;;;;;;;;5072438;28;20506;-56
2023/08/29 14:30:48;;;;;;;3.17;1.02;;;;;;;;;;5073140;28;20051;-57
2023/08/29 14:33:15;;;;;;;2.20;1.27;;;;;;;;;;5077916;28;20044;-56
2023/08/29 14:35:43;;;;;;;2.70;1.50;;;;;;;;;;5067678;28;20484;-50
2023/08/29 14:38:09;;;;;;;2.60;1.35;;;;;;;;;;5066705;28;20139;-55
2023/08/29 14:40:37;;;;;;;2.28;1.55;;;;;;;;;;5082041;28;20040;-59
2023/08/29 14:43:04;;;;;;;2.63;1.60;;;;;;;;;;5070210;28;20044;-55
2023/08/29 14:45:31;;;;;;;2.38;1.50;;;;;;;;;;5067203;28;20047;-59
2023/08/29 14:47:57;;;;;;;2.28;1.50;;;;;;;;;;5060388;28;20055;-54
2023/08/29 14:50:24;;;;;;;2.28;1.60;;;;;;;;;;5064339;28;20075;-54
2023/08/29 14:52:52;;;;;;;2.65;1.60;;;;;;;;;;5065166;28;20051;-55
2023/08/29 14:55:21;;;;;;;3.50;2.03;;;;;;;;;;5072626;28;20044;-52
2023/08/29 14:57:48;;;;;;;3.75;2.10;;;;;;;;;;5074299;28;20505;-56
2023/08/29 15:00:15;;;;;;;2.75;1.83;;;;;;;;;;5061378;28;20094;-57
2023/08/29 15:02:42;;;;;;;2.55;1.83;;;;;;;;;;5068850;28;20056;-55
2023/08/29 15:05:11;;;;;;;2.75;1.80;;;;;;;;;;5071515;28;20052;-59
2023/08/29 15:07:38;;;;;;;2.95;1.65;;;;;;;;;;5079154;28;20054;-54